• Join FlightAware (Why Join?)
  • Login
  • US Flag 
11:15PM EDT


 

Airport Tracker/Info


-or-


 

Live Flight TrackerFlight Track Log ✈ EJM92 ✈ 29-Oct-2013 ✈ KSWF - KOWD

Flight Track Log - Related Links

Times and Time Zones

All times are in EDT time to prevent confusion due to time zone crossing. See the EJM92 flight status page for this flight to view local times or setup timezone preferences in your user account.

Time Position Orientation Groundspeed Altitude Reporting Facility
EDT Latitude Longitude Course Direction KTS MPH feet Rate Location/Type
03:33PM 41.5011 -74.1356 324° Northwest 178 205 2,100  Level Boston Center
03:34PM 41.5481 -74.1811 324° Northwest 253 291 4,900 1,740 Climbing Boston Center
03:35PM 41.5867 -74.0931 60° Northeast 278 320 5,800 1,980 Climbing Boston Center
03:36PM 41.6186 -73.9864 68° East 305 351 9,100 2,040 Climbing Boston Center
03:37PM 41.6542 -73.8647 69° East 357 411 10,000 1,140 Climbing Boston Center
03:39PM 41.6683 -73.7164 60° Northeast 376 433 11,500 1,440 Climbing Boston Center
03:40PM 41.6650 -73.5731 92° East 386 444 13,000 720 Climbing Boston Center
03:41PM 41.6628 -73.4297 91° East 385 443 13,000  Level Boston Center
03:42PM 41.6603 -73.2756 91° East 397 457 13,000  Level Boston Center
03:43PM 41.6564 -73.1314 92° East 389 448 13,000  Level Boston Center
03:44PM 41.6578 -72.9861 89° East 391 450 13,000  Level Boston Center
03:45PM 41.6633 -72.8292 87° East 394 453 13,000  Level Boston Center
03:46PM 41.6683 -72.6842 87° East 393 452 13,000  Level Boston Center
03:47PM 41.6742 -72.5283 87° East 390 449 13,000  Level Boston Center
03:48PM 41.6789 -72.3867 87° East 383 441 13,000  Level Boston Center
03:49PM 41.6836 -72.2408 87° East 393 452 13,000  Level Boston Center
03:50PM 41.6881 -72.0972 88° East 390 449 13,000  Level Boston Center
03:50PM 41.6889 -72.0853 85° East 392 451 13,000 -780 Level Boston Center
03:51PM 41.6992 -71.9108 85° East 377 434 12,000 -1,320 Descending Boston Center
03:52PM 41.7283 -71.8153 68° East 359 413 10,400 -2,100 Descending Boston Center
03:52PM 41.7425 -71.7853 58° Northeast 311 358 9,700 -2,100 Descending Boston Center
03:53PM 41.7775 -71.7222 53° Northeast 306 352 8,300 -2,340 Descending Boston Center
03:53PM 41.7914 -71.6964 54° Northeast 284 327 7,400 -3,000 Descending Boston Center
03:54PM 41.8256 -71.6333 54° Northeast 293 337 5,300 -2,520 Descending Boston Center
03:55PM 41.8767 -71.5436 53° Northeast 279 321 3,000 -1,140 Descending Boston Center
03:56PM 41.9225 -71.4672 51° Northeast 265 305 3,000  Level Boston Center
03:57PM 41.9733 -71.3958 46° Northeast 265 305 3,000 -60 Level Boston Center
03:58PM 42.0281 -71.3219 45° Northeast 259 298 2,900 -540 Descending Boston Center
03:59PM 42.0811 -71.2564 43° Northeast 261 300 2,000 -600 Descending Boston Center
04:00PM 42.1219 -71.1958 48° Northeast 215 247 1,800 -360 Descending Boston Center
04:01PM 42.1375 -71.1486 66° East 142 163 1,300 -600 Descending Boston Center
04:02PM 42.1664 -71.1639 339° North 119 137 600 -720 Descending Boston Center